createdAt,value
2024-01-15T00:00:41.771Z,19.52
2024-01-15T00:03:09.302Z,18.17
2024-01-15T00:05:36.955Z,16.77
2024-01-15T00:08:04.262Z,10.52
2024-01-15T00:10:31.386Z,13.45
2024-01-15T00:12:58.566Z,10.23
2024-01-15T00:15:26.412Z,11.75
2024-01-15T00:17:53.669Z,12.43
2024-01-15T00:20:20.831Z,12.00
2024-01-15T00:22:47.968Z,7.82
2024-01-15T00:25:15.317Z,8.80
2024-01-15T00:27:42.503Z,7.05
2024-01-15T00:30:10.887Z,12.20
2024-01-15T00:32:38.248Z,9.18
2024-01-15T00:35:06.209Z,9.07
2024-01-15T00:37:33.434Z,10.32
2024-01-15T00:40:00.771Z,10.68
2024-01-15T00:42:28.107Z,7.88
2024-01-15T00:44:55.662Z,11.48
2024-01-15T00:47:22.977Z,16.20
2024-01-15T00:49:50.291Z,18.95
2024-01-15T00:52:17.485Z,14.32
2024-01-15T00:54:44.580Z,14.85
2024-01-15T00:57:11.744Z,15.70
2024-01-15T00:59:39.151Z,13.77
2024-01-15T01:02:06.362Z,17.63
2024-01-15T01:04:33.513Z,16.00
2024-01-15T01:07:00.828Z,12.60
2024-01-15T01:09:30.504Z,12.98
2024-01-15T01:11:58.021Z,14.93
2024-01-15T01:14:25.160Z,12.60
2024-01-15T01:16:52.374Z,14.57
2024-01-15T01:19:19.812Z,12.32
2024-01-15T01:21:47.233Z,14.88
2024-01-15T01:24:14.419Z,15.48
2024-01-15T01:26:41.651Z,17.60
2024-01-15T01:29:08.847Z,11.80
2024-01-15T01:31:36.413Z,12.32
2024-01-15T01:34:03.761Z,14.32
2024-01-15T01:36:33.084Z,14.75
2024-01-15T01:39:00.390Z,12.10
2024-01-15T01:41:27.572Z,11.93
2024-01-15T01:43:54.823Z,14.10
2024-01-15T01:46:22.145Z,16.50
2024-01-15T01:48:49.850Z,13.48
2024-01-15T01:51:17.301Z,17.02
2024-01-15T01:53:46.719Z,14.30
2024-01-15T01:56:14.843Z,16.13
2024-01-15T01:58:42.228Z,16.92
2024-01-15T02:01:09.983Z,11.13
2024-01-15T02:03:37.592Z,16.17
2024-01-15T02:06:05.399Z,13.38
2024-01-15T02:08:33.020Z,14.35
2024-01-15T02:11:00.171Z,11.45
2024-01-15T02:13:27.447Z,17.52
2024-01-15T02:15:54.674Z,12.73
2024-01-15T02:18:22.270Z,14.50
2024-01-15T02:20:49.606Z,12.57
2024-01-15T02:23:17.517Z,13.65
2024-01-15T02:25:46.868Z,17.73
2024-01-15T02:28:19.106Z,11.10
2024-01-15T02:30:47.091Z,10.68
2024-01-15T02:33:14.868Z,16.63
2024-01-15T02:35:42.379Z,15.73
2024-01-15T02:38:09.681Z,14.10
2024-01-15T02:40:37.959Z,12.68
2024-01-15T02:43:05.598Z,13.32
2024-01-15T02:45:33.016Z,15.45
2024-01-15T02:48:00.250Z,15.85
2024-01-15T02:50:27.584Z,16.38
2024-01-15T02:52:54.892Z,12.20
2024-01-15T02:55:22.242Z,13.15
2024-01-15T02:57:49.458Z,18.55
2024-01-15T03:00:16.938Z,16.27
2024-01-15T03:02:48.520Z,17.23
2024-01-15T03:05:16.538Z,13.15
2024-01-15T03:07:44.824Z,24.27
2024-01-15T03:10:12.066Z,26.98
2024-01-15T03:12:39.253Z,18.23
2024-01-15T03:15:06.827Z,21.98
2024-01-15T03:17:34.293Z,25.17
2024-01-15T03:20:03.959Z,25.48
2024-01-15T03:22:31.244Z,35.40
2024-01-15T03:24:58.381Z,19.33
2024-01-15T03:27:25.571Z,18.63
2024-01-15T03:29:52.934Z,21.45
2024-01-15T03:32:20.918Z,20.80
2024-01-15T03:34:49.038Z,22.27
2024-01-15T03:37:16.439Z,30.83
2024-01-15T03:39:43.653Z,31.92
2024-01-15T03:42:10.962Z,24.45
2024-01-15T03:44:38.055Z,19.63
2024-01-15T03:47:05.660Z,22.48
2024-01-15T03:49:32.943Z,16.75
2024-01-15T03:52:00.082Z,17.27
2024-01-15T03:54:28.274Z,8.50
2024-01-15T03:56:55.456Z,12.23
2024-01-15T03:59:22.761Z,7.85
2024-01-15T04:01:53.043Z,13.70
2024-01-15T04:04:20.543Z,8.50
2024-01-15T04:06:47.935Z,13.45
2024-01-15T04:09:15.507Z,9.20
2024-01-15T04:11:42.825Z,14.07
2024-01-15T04:14:09.911Z,12.95
2024-01-15T04:16:38.874Z,15.75
2024-01-15T04:19:06.192Z,18.52
2024-01-15T04:21:33.680Z,15.40
2024-01-15T04:24:01.052Z,19.42
2024-01-15T04:26:28.191Z,17.75
2024-01-15T04:28:55.351Z,20.98
2024-01-15T04:31:28.490Z,18.92
2024-01-15T04:33:56.113Z,19.25
2024-01-15T04:36:23.633Z,18.65
2024-01-15T04:38:50.840Z,17.60
2024-01-15T04:41:18.381Z,17.23
2024-01-15T04:43:45.818Z,20.73
2024-01-15T04:46:13.067Z,21.23
2024-01-15T04:48:40.325Z,17.25
2024-01-15T04:51:10.236Z,17.33
2024-01-15T04:53:37.587Z,18.17
2024-01-15T04:56:05.009Z,19.13
2024-01-15T04:58:32.151Z,17.95
2024-01-15T05:00:59.355Z,15.55
2024-01-15T05:03:26.645Z,15.85
2024-01-15T05:05:54.007Z,15.70
2024-01-15T05:08:21.227Z,17.38
2024-01-15T05:10:49.168Z,21.27
2024-01-15T05:13:16.497Z,17.27
2024-01-15T05:15:44.230Z,20.08
2024-01-15T05:18:11.780Z,15.50
2024-01-15T05:20:39.046Z,18.02
2024-01-15T05:23:06.201Z,20.95
2024-01-15T05:25:33.468Z,14.30
2024-01-15T05:28:01.144Z,17.40
2024-01-15T05:30:28.437Z,20.00
2024-01-15T05:32:55.784Z,11.38
2024-01-15T05:35:23.048Z,24.30
2024-01-15T05:37:50.305Z,15.32
2024-01-15T05:40:17.454Z,19.80
2024-01-15T05:42:44.609Z,14.32
2024-01-15T05:45:11.812Z,17.02
2024-01-15T05:47:39.145Z,14.73
2024-01-15T05:50:08.035Z,10.65
2024-01-15T05:52:35.461Z,14.63
2024-01-15T05:55:02.828Z,12.07
2024-01-15T05:57:30.059Z,13.85
2024-01-15T05:59:57.320Z,15.43
2024-01-15T06:02:24.500Z,16.75
2024-01-15T06:04:51.668Z,14.18
2024-01-15T06:07:18.909Z,16.48
2024-01-15T06:09:46.336Z,34.30
2024-01-15T06:12:13.772Z,21.25
2024-01-15T06:14:42.528Z,19.48
2024-01-15T06:17:09.842Z,17.85
2024-01-15T06:19:37.057Z,27.95
2024-01-15T06:22:04.495Z,24.52
2024-01-15T06:24:31.714Z,18.73
2024-01-15T06:26:58.849Z,20.60
2024-01-15T06:29:27.685Z,28.77
2024-01-15T06:31:55.406Z,34.50
2024-01-15T06:34:22.900Z,22.85
2024-01-15T06:36:50.244Z,18.55
2024-01-15T06:39:17.437Z,20.23
2024-01-15T06:41:45.010Z,22.15
2024-01-15T06:44:12.935Z,20.73
2024-01-15T06:46:46.493Z,18.13
2024-01-15T06:49:14.076Z,17.00
2024-01-15T06:51:41.891Z,19.77
2024-01-15T06:54:09.900Z,25.05
2024-01-15T06:56:37.067Z,17.92
2024-01-15T06:59:04.172Z,23.80
2024-01-15T07:01:31.521Z,27.52
2024-01-15T07:03:58.897Z,18.08
2024-01-15T07:06:26.259Z,21.33
2024-01-15T07:08:53.659Z,18.25
2024-01-15T07:11:21.013Z,18.10
2024-01-15T07:13:48.236Z,21.38
2024-01-15T07:16:29.671Z,28.13
2024-01-15T07:19:02.542Z,70.18
2024-01-15T07:21:29.785Z,54.17
2024-01-15T07:23:56.969Z,56.45
2024-01-15T07:26:24.174Z,40.65
2024-01-15T07:28:51.403Z,23.35
2024-01-15T07:31:19.147Z,15.48
2024-01-15T07:33:47.710Z,16.83
2024-01-15T07:36:15.074Z,12.68
2024-01-15T07:38:42.205Z,11.65
2024-01-15T07:41:09.446Z,12.07
2024-01-15T07:43:36.623Z,10.32
2024-01-15T07:46:04.094Z,13.38
2024-01-15T07:48:31.703Z,14.27
2024-01-15T07:50:58.909Z,10.02
2024-01-15T07:53:26.111Z,11.18
2024-01-15T07:55:53.338Z,11.50
2024-01-15T07:58:20.461Z,15.30
2024-01-15T08:00:47.757Z,12.75
2024-01-15T08:03:16.671Z,11.13
2024-01-15T08:05:44.031Z,12.70
2024-01-15T08:08:11.207Z,14.80
2024-01-15T08:10:38.407Z,13.68
2024-01-15T08:13:05.502Z,15.25
2024-01-15T08:15:32.784Z,15.60
2024-01-15T08:18:00.722Z,13.45
2024-01-15T08:20:28.155Z,15.82
2024-01-15T08:22:55.357Z,14.88
2024-01-15T08:25:22.531Z,13.52
2024-01-15T08:27:50.113Z,14.15
2024-01-15T08:30:17.667Z,13.95
2024-01-15T08:32:44.950Z,19.70
2024-01-15T08:35:12.862Z,11.70
2024-01-15T08:37:40.481Z,15.60
2024-01-15T08:40:08.334Z,12.57
2024-01-15T08:42:35.627Z,11.85
2024-01-15T08:45:03.034Z,13.18
2024-01-15T08:47:30.288Z,11.63
2024-01-15T08:49:57.520Z,10.02
2024-01-15T08:52:24.697Z,14.60
2024-01-15T08:54:52.240Z,14.15
2024-01-15T08:57:19.530Z,24.17
2024-01-15T08:59:46.626Z,17.60
2024-01-15T09:02:14.000Z,19.17
2024-01-15T09:04:42.335Z,16.58
2024-01-15T09:07:09.769Z,19.23
2024-01-15T09:09:37.896Z,13.27
2024-01-15T09:12:05.400Z,15.13
2024-01-15T09:14:36.786Z,21.13
2024-01-15T09:17:06.589Z,21.80
2024-01-15T09:19:34.146Z,16.35
2024-01-15T09:22:01.505Z,11.43
2024-01-15T09:24:29.604Z,14.48
2024-01-15T09:26:58.362Z,14.02
2024-01-15T09:29:25.668Z,15.55
2024-01-15T09:31:53.618Z,10.43
2024-01-15T09:34:21.267Z,9.65
2024-01-15T09:36:50.300Z,11.05
2024-01-15T09:39:17.925Z,8.75
2024-01-15T09:41:45.339Z,6.95
2024-01-15T09:44:13.549Z,7.63
2024-01-15T09:46:41.358Z,14.23
2024-01-15T09:49:08.726Z,10.52
2024-01-15T09:51:37.802Z,12.57
2024-01-15T09:54:05.415Z,9.68
2024-01-15T09:56:32.910Z,18.40
2024-01-15T09:59:01.242Z,16.42
2024-01-15T10:01:29.656Z,10.35
2024-01-15T10:03:57.104Z,9.63
2024-01-15T10:06:24.760Z,11.63
2024-01-15T10:08:52.862Z,14.00
2024-01-15T10:11:21.051Z,10.45
2024-01-15T10:13:53.724Z,8.32
2024-01-15T10:16:26.480Z,12.07
2024-01-15T10:18:54.850Z,8.07
2024-01-15T10:21:23.198Z,9.52
2024-01-15T10:23:51.693Z,8.20
2024-01-15T10:26:19.922Z,7.63
2024-01-15T10:28:54.224Z,16.63
2024-01-15T10:31:26.192Z,11.40
2024-01-15T10:33:55.522Z,8.90
2024-01-15T10:36:24.324Z,9.27
2024-01-15T10:38:51.789Z,14.68
2024-01-15T10:41:18.921Z,11.63
2024-01-15T10:43:46.337Z,8.70
2024-01-15T10:46:13.980Z,11.55
2024-01-15T10:48:41.322Z,11.73
2024-01-15T10:51:12.131Z,12.30
2024-01-15T10:53:43.241Z,13.38
2024-01-15T10:56:11.516Z,14.07
2024-01-15T10:58:40.888Z,13.10
2024-01-15T11:01:08.494Z,12.82
2024-01-15T11:03:35.953Z,11.35
2024-01-15T11:06:04.792Z,11.68
2024-01-15T11:08:32.827Z,10.60
2024-01-15T11:11:00.121Z,10.60
2024-01-15T11:13:33.184Z,11.32
2024-01-15T11:16:05.747Z,11.65
2024-01-15T11:18:41.525Z,12.05
2024-01-15T11:21:17.759Z,11.73
2024-01-15T11:23:54.021Z,10.32
2024-01-15T11:26:35.342Z,10.05
2024-01-15T11:29:04.898Z,8.25
2024-01-15T11:31:52.281Z,7.38
2024-01-15T11:34:20.426Z,11.75
2024-01-15T11:36:47.637Z,9.52
2024-01-15T11:39:33.747Z,8.38
2024-01-15T11:42:05.223Z,9.70
2024-01-15T11:44:32.648Z,8.02
2024-01-15T11:47:05.174Z,10.52
2024-01-15T11:49:50.726Z,10.25
2024-01-15T11:52:24.932Z,8.30
2024-01-15T11:55:17.903Z,8.50
2024-01-15T11:57:51.175Z,9.65
2024-01-15T12:00:19.315Z,12.07
2024-01-15T12:02:47.957Z,8.82
2024-01-15T12:05:17.928Z,9.07
2024-01-15T12:07:47.145Z,9.23
2024-01-15T12:10:18.545Z,9.25
2024-01-15T12:13:02.216Z,10.63
2024-01-15T12:15:31.187Z,8.68
2024-01-15T12:18:00.193Z,8.10
2024-01-15T12:20:36.983Z,7.75
2024-01-15T12:23:08.965Z,19.48
2024-01-15T12:25:37.094Z,7.85
2024-01-15T12:28:04.699Z,9.05
2024-01-15T12:30:35.730Z,7.95
2024-01-15T12:33:07.912Z,8.35
2024-01-15T12:35:35.862Z,9.57
2024-01-15T12:38:06.556Z,6.38
2024-01-15T12:40:36.930Z,7.20
2024-01-15T12:43:07.070Z,8.85
2024-01-15T12:45:34.477Z,8.38
2024-01-15T12:48:02.238Z,9.25
2024-01-15T12:50:29.460Z,9.95
2024-01-15T12:52:56.823Z,11.10
2024-01-15T12:55:23.987Z,9.93
2024-01-15T12:57:54.036Z,9.43
2024-01-15T13:00:22.004Z,10.00
2024-01-15T13:02:51.084Z,11.90
2024-01-15T13:05:19.306Z,10.20
2024-01-15T13:07:46.709Z,13.75
2024-01-15T13:10:14.085Z,11.73
2024-01-15T13:12:42.762Z,13.55
2024-01-15T13:15:14.913Z,11.23
2024-01-15T13:17:44.493Z,9.57
2024-01-15T13:20:14.053Z,12.27
2024-01-15T13:22:45.443Z,19.50
2024-01-15T13:25:13.144Z,10.35
2024-01-15T13:27:41.544Z,12.07
2024-01-15T13:30:10.077Z,8.00
2024-01-15T13:32:37.577Z,9.68
2024-01-15T13:35:08.232Z,11.63
2024-01-15T13:37:35.952Z,10.00
2024-01-15T13:40:04.934Z,12.50
2024-01-15T13:42:32.288Z,6.18
2024-01-15T13:44:59.707Z,9.55
2024-01-15T13:47:26.895Z,7.53
2024-01-15T13:49:54.111Z,7.15
2024-01-15T13:52:21.253Z,8.48
2024-01-15T13:54:50.570Z,8.68
2024-01-15T13:57:20.887Z,6.03
2024-01-15T13:59:48.927Z,9.48
2024-01-15T14:02:19.750Z,12.82
2024-01-15T14:04:50.163Z,6.65
2024-01-15T14:07:18.040Z,7.47
2024-01-15T14:09:45.413Z,9.52
2024-01-15T14:12:13.426Z,10.98
2024-01-15T14:14:41.607Z,11.60
2024-01-15T14:17:08.967Z,9.23
2024-01-15T14:19:37.021Z,8.15
2024-01-15T14:22:05.021Z,7.50
2024-01-15T14:24:32.292Z,7.68
2024-01-15T14:26:59.929Z,9.38
2024-01-15T14:29:28.255Z,18.75
2024-01-15T14:31:55.667Z,12.82
2024-01-15T14:34:25.497Z,8.88
2024-01-15T14:36:56.482Z,17.48
2024-01-15T14:42:21.500Z,10.15
2024-01-15T14:44:48.623Z,10.90
2024-01-15T14:47:15.706Z,13.30
2024-01-15T14:49:42.938Z,11.05
2024-01-15T14:52:10.174Z,20.88
2024-01-15T14:54:37.369Z,16.45
2024-01-15T14:57:04.856Z,11.07
2024-01-15T14:59:32.081Z,15.77
2024-01-15T15:01:59.281Z,9.50
2024-01-15T15:04:29.885Z,16.67
2024-01-15T15:06:58.303Z,18.92
2024-01-15T15:09:25.730Z,9.25
2024-01-15T15:11:53.358Z,10.52
2024-01-15T15:14:20.508Z,15.45
2024-01-15T15:16:50.509Z,8.98
2024-01-15T15:19:19.085Z,10.80
2024-01-15T15:21:46.478Z,12.25
2024-01-15T15:24:14.004Z,9.05
2024-01-15T15:26:41.287Z,7.43
2024-01-15T15:29:09.221Z,10.77
2024-01-15T15:31:36.528Z,11.80
2024-01-15T15:34:04.158Z,9.43
2024-01-15T15:36:32.163Z,14.85
2024-01-15T15:38:59.899Z,10.68
2024-01-15T15:41:30.096Z,9.68
2024-01-15T15:43:57.261Z,10.13
2024-01-15T15:46:24.499Z,10.85
2024-01-15T15:48:51.935Z,12.60
2024-01-15T15:51:19.260Z,9.30
2024-01-15T15:53:46.455Z,11.77
2024-01-15T15:56:13.634Z,9.07
2024-01-15T15:58:41.361Z,13.57
2024-01-15T16:01:08.598Z,7.15
2024-01-15T16:03:35.831Z,6.63
2024-01-15T16:06:03.158Z,6.93
2024-01-15T16:08:30.343Z,11.05
2024-01-15T16:10:57.516Z,8.55
2024-01-15T16:13:24.739Z,9.25
2024-01-15T16:15:51.907Z,13.43
2024-01-15T16:23:21.584Z,6.28
2024-01-15T16:23:36.406Z,11.77
2024-01-15T16:24:21.699Z,10.77
2024-01-15T16:26:55.949Z,11.05
2024-01-15T16:29:24.204Z,8.20
2024-01-15T16:31:51.314Z,8.68
2024-01-15T16:34:18.493Z,12.50
2024-01-15T16:36:45.716Z,14.63
2024-01-15T16:39:12.948Z,12.02
2024-01-15T16:41:40.583Z,11.32
2024-01-15T16:44:07.876Z,11.85
2024-01-15T16:46:35.054Z,14.00
2024-01-15T16:49:03.426Z,22.48
2024-01-15T16:51:30.795Z,18.85
2024-01-15T16:53:58.697Z,17.80
2024-01-15T16:56:26.008Z,20.02
2024-01-15T16:58:54.368Z,19.20
2024-01-15T17:01:22.288Z,15.60
2024-01-15T17:03:49.444Z,13.60
2024-01-15T17:06:18.340Z,15.93
2024-01-15T17:08:45.486Z,16.15
2024-01-15T17:11:12.720Z,20.45
2024-01-15T17:13:41.045Z,15.93
2024-01-15T17:16:08.409Z,23.90
2024-01-15T17:18:35.634Z,18.45
2024-01-15T17:21:02.826Z,21.70
2024-01-15T17:23:29.992Z,19.55
2024-01-15T17:25:57.338Z,16.40
2024-01-15T17:28:25.635Z,15.15
2024-01-15T17:30:52.909Z,19.40
2024-01-15T17:33:20.876Z,19.65
2024-01-15T17:35:57.530Z,20.85
2024-01-15T17:38:25.794Z,15.23
2024-01-15T17:40:53.082Z,14.40
2024-01-15T17:43:21.554Z,15.05
2024-01-15T17:45:49.865Z,17.25
2024-01-15T17:48:17.332Z,14.18
2024-01-15T17:50:44.912Z,15.55
2024-01-15T17:53:12.585Z,15.57
2024-01-15T17:55:39.774Z,16.13
2024-01-15T17:58:07.278Z,16.85
2024-01-15T18:00:34.806Z,11.85
2024-01-15T18:03:02.168Z,13.02
2024-01-15T18:05:29.523Z,16.90
2024-01-15T18:07:56.957Z,14.70
2024-01-15T18:10:24.164Z,12.25
2024-01-15T18:12:51.427Z,19.88
2024-01-15T18:15:18.820Z,16.08
2024-01-15T18:17:46.308Z,18.08
2024-01-15T18:20:15.046Z,20.52
2024-01-15T18:22:42.329Z,22.35
2024-01-15T18:25:10.441Z,18.58
2024-01-15T18:27:37.685Z,21.95
2024-01-15T18:30:05.187Z,18.08
2024-01-15T18:32:32.503Z,25.20
2024-01-15T18:34:59.892Z,21.02
2024-01-15T18:37:29.024Z,19.70
2024-01-15T18:39:56.259Z,22.75
2024-01-15T18:42:23.753Z,20.17
2024-01-15T18:44:51.317Z,24.45
2024-01-15T18:47:18.829Z,23.65
2024-01-15T18:49:48.535Z,17.30
2024-01-15T18:52:17.715Z,22.77
2024-01-15T18:54:44.977Z,18.85
2024-01-15T18:57:12.236Z,16.67
2024-01-15T18:59:41.412Z,18.80
2024-01-15T19:02:08.712Z,21.73
2024-01-15T19:04:36.178Z,20.83
2024-01-15T19:07:05.933Z,21.05
2024-01-15T19:09:33.285Z,24.95
2024-01-15T19:12:00.513Z,19.98
2024-01-15T19:14:27.985Z,21.27
2024-01-15T19:16:55.384Z,19.92
2024-01-15T19:19:22.593Z,16.90
2024-01-15T19:21:51.284Z,23.13
2024-01-15T19:24:19.738Z,18.02
2024-01-15T19:26:46.945Z,19.95
2024-01-15T19:29:14.372Z,20.33
2024-01-15T19:31:42.124Z,19.90
2024-01-15T19:34:09.838Z,22.33
2024-01-15T19:36:37.072Z,23.13
2024-01-15T19:39:04.368Z,18.33
2024-01-15T19:41:31.664Z,17.15
2024-01-15T19:43:58.920Z,18.63
2024-01-15T19:46:26.576Z,20.27
2024-01-15T19:48:54.838Z,14.75
2024-01-15T19:51:22.136Z,18.63
2024-01-15T19:53:49.352Z,21.40
2024-01-15T19:56:18.945Z,17.60
2024-01-15T19:58:46.294Z,17.35
2024-01-15T20:01:13.642Z,16.30
2024-01-15T20:03:42.523Z,20.55
2024-01-15T20:06:14.222Z,19.15
2024-01-15T20:08:46.117Z,18.10
2024-01-15T20:11:14.151Z,14.70
2024-01-15T20:13:43.047Z,20.20
2024-01-15T20:16:13.601Z,15.90
2024-01-15T20:18:42.566Z,13.88
2024-01-15T20:21:09.908Z,17.23
2024-01-15T20:23:46.628Z,15.02
2024-01-15T20:26:22.251Z,13.70
2024-01-15T20:28:49.657Z,19.75
2024-01-15T20:31:17.580Z,17.67
2024-01-15T20:33:44.755Z,16.85
2024-01-15T20:36:14.417Z,19.08
2024-01-15T20:38:41.761Z,14.77
2024-01-15T20:41:09.049Z,19.77
2024-01-15T20:43:36.524Z,11.63
2024-01-15T20:46:03.974Z,11.40
2024-01-15T20:48:32.581Z,12.88
2024-01-15T20:50:59.800Z,9.90
2024-01-15T20:53:27.135Z,9.98
2024-01-15T20:55:54.385Z,15.85
2024-01-15T20:58:27.514Z,11.35
2024-01-15T21:00:55.832Z,9.23
2024-01-15T21:03:23.927Z,15.13
2024-01-15T21:05:51.364Z,12.85
2024-01-15T21:08:18.843Z,11.70
2024-01-15T21:10:46.037Z,13.35
2024-01-15T21:13:13.279Z,12.65
2024-01-15T21:15:40.477Z,11.48
2024-01-15T21:18:07.855Z,7.55
2024-01-15T21:20:35.084Z,9.95
2024-01-15T21:23:03.569Z,6.43
2024-01-15T21:25:31.739Z,7.30
2024-01-15T21:27:58.903Z,9.23
2024-01-15T21:30:26.483Z,7.72
2024-01-15T21:32:53.812Z,13.57
2024-01-15T21:35:21.190Z,8.00
2024-01-15T21:37:48.384Z,4.10
2024-01-15T21:40:16.943Z,6.75
2024-01-15T21:42:44.979Z,6.20
2024-01-15T21:45:12.222Z,5.90
2024-01-15T21:47:39.622Z,5.13
2024-01-15T21:50:10.113Z,6.63
2024-01-15T21:52:37.806Z,10.18
2024-01-15T21:55:07.074Z,5.35
2024-01-15T21:57:34.476Z,11.07
2024-01-15T22:00:05.559Z,8.18
2024-01-15T22:05:10.387Z,7.13
2024-01-15T22:07:41.448Z,6.07
2024-01-15T22:10:09.401Z,5.05
2024-01-15T22:12:36.706Z,6.95
2024-01-15T22:15:04.246Z,4.85
2024-01-15T22:17:31.457Z,5.82
2024-01-15T22:19:58.789Z,5.22
2024-01-15T22:22:25.962Z,9.50
2024-01-15T22:24:53.111Z,7.53
2024-01-15T22:27:20.292Z,7.13
2024-01-15T22:29:51.908Z,12.40
2024-01-15T22:32:19.427Z,7.97
2024-01-15T22:34:46.800Z,7.50
2024-01-15T22:37:15.142Z,5.88
2024-01-15T22:39:42.339Z,6.22
2024-01-15T22:42:10.203Z,5.72
2024-01-15T22:44:37.548Z,8.60
2024-01-15T22:47:05.017Z,6.63
2024-01-15T22:49:32.324Z,6.22
2024-01-15T22:51:59.479Z,9.88
2024-01-15T22:54:27.072Z,5.45
2024-01-15T22:56:54.225Z,6.20
2024-01-15T22:59:23.395Z,7.38
2024-01-15T23:01:50.944Z,6.00
2024-01-15T23:04:19.039Z,7.95
2024-01-15T23:06:46.430Z,7.15
2024-01-15T23:09:13.594Z,7.13
2024-01-15T23:11:40.906Z,7.95
2024-01-15T23:14:08.193Z,5.93
2024-01-15T23:16:35.414Z,9.90
2024-01-15T23:19:02.603Z,8.57
2024-01-15T23:21:29.773Z,7.78
2024-01-15T23:23:56.918Z,7.70
2024-01-15T23:26:24.100Z,8.77
2024-01-15T23:28:51.331Z,9.10
2024-01-15T23:31:18.583Z,5.22
2024-01-15T23:33:45.769Z,10.73
2024-01-15T23:36:13.108Z,6.65
2024-01-15T23:38:40.528Z,10.38
2024-01-15T23:41:10.966Z,7.65
2024-01-15T23:43:39.809Z,5.60
2024-01-15T23:46:14.247Z,6.70
2024-01-15T23:48:42.734Z,6.40
2024-01-15T23:51:10.197Z,4.93
2024-01-15T23:53:37.426Z,7.22
2024-01-15T23:56:05.308Z,5.55
2024-01-15T23:58:32.528Z,8.13
